Harrisburg, New York
Current Conditions -  °F | °C
As of 1:35 PM on Monday 20 Oct 2014 (Local Time) from KGTB Reporting Station
Scattered Clouds Scattered Clouds  
Wind Chill: 41°   Ceiling: Unl
Heat Index: 45°   Visibility: 10mi
Dew Point: 39°   Wind: 7mph
Humidity: 81%   Direction: 130°SE
Pressure: 29.88"   Gusts: NA
Location:  43.7565°N, 75.5938°W
Report Text: KGTB 201735Z AUTO 13006KT 10SM FEW026 SCT044 07/04 A2988 RMK AO2 RAE1723DZB1723E1735
Loading
Personal Weather Stations






























Interactive Weather Map New forecast layout! Learn more

10-Day Weather Forecast

Advertisements
Track Severe Weather on mobile